Roswell International Air Center Airport
KROW : now visible

Airfield :











YOU CAN JOIN US ON...

 
LOGIN :

Register | Disclaimer

   EN    FR    IT 

 









Legend :    VFR   Marginal VFR   IFR   Intensive IFR   Very Intensive IFR
Visi :
Ceiling :
>= 8 km
>= 3000ft
5 to 8 km
1000 to 3000 ft
1500m to 5 km
500 to 1000 ft
800 to 1500m
200 to 500 ft
< 800m
< 200 ft
Symbols :   Thunderstorms  Fog  Heavy snow  Heavy precipitations  Wind > 20 kt






- Airport Elevation : 3671 ft
- IATA code : ROW


KROW - Roswell International Air Center

CURRENT METAR :
  • 272151Z 25026G34KT 10SM CLR 24/M24 A2968 RMK AO2 PK WND 26035/2113 SLP011 T02391239

EXPIRED METARs :
  • 272051Z 26019G28KT 10SM CLR 25/M24 A2968 RMK AO2 PK WND 26030/2033 WSHFT 2005 SLP013 T02501239 56029
  • 272025Z 27017G27KT 10SM CLR 26/M24 A2969 RMK AO2 PK WND 27027/2023 WSHFT 2005 T02561244
  • 271951Z 22014G32KT 10SM CLR 24/M20 A2970 RMK AO2 PK WND 24032/1946 SLP015 T02441200

TAF KROW
Valid from the 27 at 22:00 until the 28 at 18:00 UTC


272204Z 2722/2818 25021G32KT P6SM BKN250
FM280100 23011KT P6SM BKN250
FM281000 28006KT P6SM SCT250
FM281300 01009KT P6SM FEW250
KZAB FIR / North America



MET'MAP, your aeronautical weather chart ! - Copyright ORBIFLY December 2007 - Disclaimer

ORBIFLY MET'MAP TEAM :

Programming & Development : Alexandra Zaïnal
Concept & original design : Baudouin d'Aumeries
Assistance for programming : Marc-Olivier Méhu
Technical & hardware support : Manuel Goepfert

Contact : metmap@orbifly.com




SOURCES & CREDITS :

   NOAA       Earth
Advisory